Time;durP1;ratioP1;P1;durP2;ratioP2;P2;SDS_P1;SDS_P2;PMS_P1;PMS_P2;Temp;Humidity;BMP_temperature;BMP_pressure;BME280_temperature;BME280_humidity;BME280_pressure;Samples;Min_cycle;Max_cycle;Signal;HPM_P1;HPM_P2
2022/11/12 00:00:26;;;;;;;41.55;26.55;;;25.60;90.00;;;;;;1796442;79;21253;-82
2022/11/12 00:03:00;;;;;;;28.45;16.57;;;25.60;89.70;;;;;;1797417;79;21855;-83
2022/11/12 00:05:31;;;;;;;16.17;7.65;;;25.60;89.70;;;;;;1788160;78;21228;-82
2022/11/12 00:08:02;;;;;;;15.58;9.98;;;25.60;89.30;;;;;;1804503;79;21175;-83
2022/11/12 00:10:36;;;;;;;18.82;13.03;;;25.60;89.50;;;;;;1800695;78;21170;-82
2022/11/12 00:13:06;;;;;;;14.00;7.08;;;25.60;89.50;;;;;;1773474;79;21181;-82
2022/11/12 00:15:37;;;;;;;12.55;5.67;;;25.60;89.20;;;;;;1802830;79;21603;-82
2022/11/12 00:18:08;;;;;;;9.83;5.78;;;25.70;89.60;;;;;;1804627;77;21131;-82
2022/11/12 00:20:39;;;;;;;8.75;4.87;;;25.70;90.00;;;;;;1796794;78;21174;-78
2022/11/12 00:23:09;;;;;;;12.50;5.97;;;25.80;90.00;;;;;;1802951;79;21671;-78
2022/11/12 00:25:40;;;;;;;10.43;6.05;;;25.80;89.90;;;;;;1797374;79;22055;-78
2022/11/12 00:28:11;;;;;;;13.88;7.30;;;25.90;89.90;;;;;;1799887;79;21442;-75
2022/11/12 00:30:42;;;;;;;48.42;9.63;;;25.90;89.70;;;;;;1797716;78;21621;-75
2022/11/12 00:33:13;;;;;;;12.78;5.22;;;26.00;89.40;;;;;;1800437;79;21213;-72
2022/11/12 00:35:43;;;;;;;13.18;5.10;;;26.00;89.00;;;;;;1773702;79;21203;-76
2022/11/12 00:38:14;;;;;;;9.38;5.17;;;26.10;88.80;;;;;;1796890;79;21229;-76
2022/11/12 00:40:45;;;;;;;12.75;5.33;;;26.20;88.80;;;;;;1798400;78;21508;-75
2022/11/12 00:43:16;;;;;;;7.58;4.72;;;26.20;88.90;;;;;;1769794;79;21157;-75
2022/11/12 00:45:47;;;;;;;9.23;5.42;;;26.30;88.40;;;;;;1804035;78;21560;-77
2022/11/12 00:48:18;;;;;;;13.13;5.97;;;26.30;88.00;;;;;;1814669;78;21226;-75
2022/11/12 00:50:49;;;;;;;10.25;5.95;;;26.30;87.90;;;;;;1814750;78;21369;-75
2022/11/12 00:53:20;;;;;;;11.12;6.53;;;26.30;87.90;;;;;;1811727;78;21072;-75
2022/11/12 00:55:51;;;;;;;11.40;6.15;;;26.30;87.90;;;;;;1815635;77;21690;-74
2022/11/12 00:58:22;;;;;;;14.25;6.55;;;26.40;88.10;;;;;;1809920;79;21178;-74
2022/11/12 01:01:02;;;;;;;12.73;7.00;;;26.40;88.10;;;;;;1815764;78;21096;-75
2022/11/12 01:03:29;;;;;;;11.95;6.40;;;26.40;87.90;;;;;;1813643;78;21150;-75
2022/11/12 01:06:04;;;;;;;13.13;7.95;;;26.40;88.60;;;;;;1810099;77;21135;-75
2022/11/12 01:08:35;;;;;;;13.22;6.87;;;26.40;87.90;;;;;;1815300;77;21111;-75
2022/11/12 01:11:08;;;;;;;11.70;7.28;;;26.40;87.80;;;;;;1812099;77;21149;-76
2022/11/12 01:13:41;;;;;;;11.88;6.17;;;26.50;88.10;;;;;;1778802;79;21162;-74
2022/11/12 01:16:15;;;;;;;10.65;6.22;;;26.50;87.90;;;;;;1816166;78;21146;-74
2022/11/12 01:18:47;;;;;;;11.73;5.90;;;26.50;87.50;;;;;;1811154;77;21186;-75
2022/11/12 01:21:18;;;;;;;10.40;5.45;;;26.60;87.20;;;;;;1812667;77;21288;-74
2022/11/12 01:23:48;;;;;;;8.65;5.42;;;26.60;86.80;;;;;;1805630;78;21155;-74
2022/11/12 01:26:22;;;;;;;13.35;5.50;;;26.60;86.70;;;;;;1816059;78;21154;-74
2022/11/12 01:28:53;;;;;;;11.12;6.58;;;26.60;86.60;;;;;;1816527;77;21155;-75
2022/11/12 01:31:28;;;;;;;12.88;7.25;;;26.70;86.70;;;;;;1813550;78;21103;-74
2022/11/12 01:34:09;;;;;;;11.80;6.20;;;26.70;86.50;;;;;;1734843;80;21272;-75
2022/11/12 01:36:41;;;;;;;10.60;6.28;;;26.80;86.40;;;;;;1809850;77;21576;-74
2022/11/12 01:39:32;;;;;;;10.60;5.65;;;26.80;85.90;;;;;;1802882;78;21304;-73
2022/11/12 01:42:04;;;;;;;13.25;6.08;;;26.80;85.60;;;;;;1699815;83;21167;-73
2022/11/12 01:44:37;;;;;;;11.33;6.12;;;26.90;85.80;;;;;;1752638;80;21206;-74
2022/11/12 01:47:16;;;;;;;12.05;6.15;;;26.80;85.80;;;;;;1747755;81;21167;-74
2022/11/12 01:50:16;;;;;;;9.65;5.03;;;26.90;85.70;;;;;;1739612;82;21170;-74
2022/11/12 01:52:58;;;;;;;9.33;5.40;;;26.90;85.50;;;;;;1708462;82;21754;-75
2022/11/12 01:55:31;;;;;;;10.50;6.00;;;27.00;85.30;;;;;;1707275;82;21217;-75
2022/11/12 01:58:14;;;;;;;8.45;5.22;;;27.00;85.60;;;;;;1725126;82;21158;-74
2022/11/12 02:00:50;;;;;;;7.95;4.30;;;27.10;85.10;;;;;;1755698;80;21227;-75
2022/11/12 02:03:25;;;;;;;10.10;5.10;;;27.10;84.90;;;;;;1751223;80;21142;-75
2022/11/12 02:06:01;;;;;;;7.08;4.03;;;27.10;84.80;;;;;;1756583;80;21776;-72
2022/11/12 02:08:34;;;;;;;9.43;4.50;;;27.20;84.50;;;;;;1764661;80;21205;-72
2022/11/12 02:11:19;;;;;;;9.70;4.20;;;27.20;84.20;;;;;;1755245;80;21142;-72
2022/11/12 02:14:00;;;;;;;7.87;4.25;;;27.20;84.80;;;;;;1752367;80;21173;-74
2022/11/12 02:16:36;;;;;;;6.50;3.77;;;27.30;83.70;;;;;;1742925;81;21114;-74
2022/11/12 02:19:09;;;;;;;10.53;4.22;;;27.30;83.20;;;;;;1755435;80;21571;-74
2022/11/12 02:21:40;;;;;;;10.05;5.22;;;27.40;83.30;;;;;;1755018;80;21285;-75
2022/11/12 02:24:19;;;;;;;9.33;4.95;;;27.40;83.30;;;;;;1744462;81;21213;-75
2022/11/12 02:26:53;;;;;;;10.40;4.90;;;27.50;82.80;;;;;;1752711;80;21217;-75
2022/11/12 02:29:24;;;;;;;9.95;5.00;;;27.60;82.90;;;;;;1766548;80;21180;-74
2022/11/12 02:31:58;;;;;;;10.75;5.58;;;27.60;83.20;;;;;;1749717;80;21067;-76
2022/11/12 02:34:29;;;;;;;10.38;5.35;;;27.60;83.30;;;;;;1753451;80;21622;-75
2022/11/12 02:37:00;;;;;;;7.95;4.85;;;27.70;83.10;;;;;;1744777;80;21630;-76
2022/11/12 02:39:31;;;;;;;10.72;4.70;;;27.70;83.00;;;;;;1719122;81;21151;-75
2022/11/12 02:42:02;;;;;;;10.25;4.15;;;27.70;82.70;;;;;;1726017;81;21174;-75
2022/11/12 02:44:33;;;;;;;8.05;4.33;;;27.80;82.10;;;;;;1752565;81;21161;-74
2022/11/12 02:47:03;;;;;;;8.55;4.72;;;27.90;81.80;;;;;;1750298;80;21500;-74
2022/11/12 02:49:34;;;;;;;10.68;4.72;;;28.00;81.50;;;;;;1753387;81;21152;-75
2022/11/12 02:52:05;;;;;;;8.70;4.12;;;28.10;81.40;;;;;;1750822;81;21150;-74
2022/11/12 02:54:36;;;;;;;9.00;3.90;;;28.10;79.80;;;;;;1751689;81;21733;-74
2022/11/12 02:57:06;;;;;;;9.88;4.12;;;28.20;79.50;;;;;;1755653;80;21186;-74
2022/11/12 02:59:37;;;;;;;6.17;4.20;;;28.20;78.70;;;;;;1758056;80;21966;-73
2022/11/12 03:02:08;;;;;;;8.35;3.92;;;28.30;78.60;;;;;;1743654;80;21243;-75
2022/11/12 03:04:39;;;;;;;8.48;4.12;;;28.30;78.10;;;;;;1748757;80;21579;-74
2022/11/12 03:07:11;;;;;;;9.98;6.15;;;28.40;77.80;;;;;;1746988;81;21164;-75
2022/11/12 03:09:42;;;;;;;8.20;4.42;;;28.40;77.70;;;;;;1761634;80;21210;-75
2022/11/12 03:12:13;;;;;;;7.83;4.55;;;28.50;77.60;;;;;;1741892;81;21215;-74
2022/11/12 03:14:44;;;;;;;17.17;5.25;;;28.60;77.70;;;;;;1754244;80;21609;-74
2022/11/12 03:17:15;;;;;;;8.00;4.37;;;28.70;77.50;;;;;;1744715;80;21174;-75
2022/11/12 03:19:46;;;;;;;7.25;4.85;;;28.80;76.70;;;;;;1749619;81;21246;-75
2022/11/12 03:22:18;;;;;;;8.93;4.20;;;28.90;77.00;;;;;;1746456;81;21221;-75
2022/11/12 03:24:49;;;;;;;8.95;4.33;;;29.00;76.60;;;;;;1747394;80;21148;-75
2022/11/12 03:27:20;;;;;;;7.55;4.15;;;29.10;75.50;;;;;;1750090;81;21280;-75
2022/11/12 03:29:51;;;;;;;8.33;5.47;;;29.20;75.60;;;;;;1749389;81;21207;-75
2022/11/12 03:32:22;;;;;;;8.78;4.85;;;29.20;76.00;;;;;;1753935;80;21226;-75
2022/11/12 03:34:53;;;;;;;5.58;3.52;;;29.40;75.60;;;;;;1746213;81;21084;-75
2022/11/12 03:37:24;;;;;;;6.58;3.80;;;29.50;73.20;;;;;;1749312;80;21182;-75
2022/11/12 03:39:55;;;;;;;7.15;4.03;;;29.60;73.10;;;;;;1748286;80;21119;-75
2022/11/12 03:42:28;;;;;;;7.65;3.58;;;29.60;72.50;;;;;;1752505;81;21882;-75
2022/11/12 03:45:02;;;;;;;6.67;3.75;;;29.80;72.80;;;;;;1754505;80;21677;-75
2022/11/12 03:47:45;;;;;;;9.63;3.95;;;29.90;72.60;;;;;;1738509;80;21296;-74
2022/11/12 03:50:21;;;;;;;7.55;3.20;;;29.90;72.70;;;;;;1719326;81;21487;-74
2022/11/12 03:52:54;;;;;;;5.75;3.33;;;30.00;70.70;;;;;;1750217;81;21629;-74
2022/11/12 03:55:27;;;;;;;6.85;2.50;;;30.10;70.00;;;;;;1754667;81;21124;-77
2022/11/12 03:58:03;;;;;;;6.08;2.85;;;30.20;68.70;;;;;;1758609;81;21126;-75
2022/11/12 04:00:30;;;;;;;4.30;2.12;;;30.30;68.50;;;;;;1754024;80;21696;-75
2022/11/12 04:09:18;;;;;;;6.08;1.92;;;30.60;63.70;;;;;;1749401;80;20173;-75
2022/11/12 04:11:49;;;;;;;6.97;2.00;;;30.70;63.40;;;;;;1747705;81;21154;-74
2022/11/12 04:14:20;;;;;;;7.00;2.27;;;30.80;63.80;;;;;;1746316;82;21150;-75
2022/11/12 04:22:30;;;;;;;8.55;3.12;;;31.00;65.30;;;;;;1747868;80;21264;-76
2022/11/12 04:27:54;;;;;;;5.37;2.22;;;31.10;64.90;;;;;;1752518;80;21287;-76
2022/11/12 04:30:26;;;;;;;6.28;2.40;;;31.20;64.40;;;;;;1751141;81;21174;-76
2022/11/12 04:32:57;;;;;;;4.17;1.95;;;31.30;64.40;;;;;;1754102;81;21102;-76
2022/11/12 04:35:28;;;;;;;6.60;1.80;;;31.30;63.80;;;;;;1746467;81;21154;-76
2022/11/12 04:38:04;;;;;;;6.72;2.05;;;31.40;62.20;;;;;;1755858;80;21151;-76
2022/11/12 04:46:13;;;;;;;3.90;1.77;;;31.60;60.30;;;;;;1759290;80;21234;-78
2022/11/12 04:48:44;;;;;;;4.22;1.60;;;31.60;59.60;;;;;;1753075;79;21209;-76
2022/11/12 04:54:04;;;;;;;4.35;1.60;;;31.70;60.50;;;;;;1757373;80;21614;-74
2022/11/12 04:56:35;;;;;;;3.42;1.75;;;31.80;59.60;;;;;;1763162;79;22166;-77
2022/11/12 04:59:06;;;;;;;7.90;2.35;;;31.80;59.90;;;;;;1754842;80;21218;-75
2022/11/12 05:01:37;;;;;;;5.35;1.77;;;31.80;59.80;;;;;;1753160;80;21237;-76
2022/11/12 05:04:09;;;;;;;3.42;2.10;;;31.80;60.00;;;;;;1754382;80;21264;-76
2022/11/12 05:06:52;;;;;;;6.42;1.80;;;31.90;60.60;;;;;;1755538;80;21225;-76
2022/11/12 05:09:41;;;;;;;;;;;;;;;;;;;;;
2022/11/12 05:12:14;;;;;;;6.28;2.12;;;32.00;59.50;;;;;;1727354;80;21579;-76
2022/11/12 05:15:12;;;;;;;5.55;1.72;;;32.10;58.50;;;;;;1732533;81;21183;-76
2022/11/12 05:17:46;;;;;;;5.17;1.90;;;32.20;58.50;;;;;;1750075;81;21232;-77
2022/11/12 05:20:17;;;;;;;5.80;1.72;;;32.30;59.40;;;;;;1755951;81;21153;-76
2022/11/12 05:22:51;;;;;;;4.17;1.77;;;32.30;57.90;;;;;;1729330;81;21748;-76
2022/11/12 05:25:23;;;;;;;5.22;1.72;;;32.30;58.10;;;;;;1752914;81;21128;-77
2022/11/12 05:27:54;;;;;;;2.42;1.42;;;32.40;57.40;;;;;;1755931;81;21146;-77
2022/11/12 05:30:26;;;;;;;6.15;2.08;;;32.50;57.20;;;;;;1755468;81;21610;-77
2022/11/12 05:33:21;;;;;;;;;;;;;;;;;;;;;
2022/11/12 05:35:39;;;;;;;4.85;1.90;;;32.60;57.40;;;;;;1726788;81;21132;-76
2022/11/12 05:38:10;;;;;;;5.17;2.02;;;32.60;57.30;;;;;;1752423;81;21198;-76
2022/11/12 05:40:43;;;;;;;4.28;1.95;;;32.60;57.50;;;;;;1755220;81;21107;-77
2022/11/12 05:43:15;;;;;;;6.15;2.20;;;32.60;57.10;;;;;;1740182;80;21585;-76
2022/11/12 05:45:46;;;;;;;4.25;2.52;;;32.70;57.40;;;;;;1726960;82;21275;-76
2022/11/12 05:48:16;;;;;;;4.30;1.67;;;32.70;56.60;;;;;;1721306;81;21221;-76
2022/11/12 05:50:52;;;;;;;9.43;1.72;;;32.60;56.80;;;;;;1696203;83;21313;-76
2022/11/12 05:53:24;;;;;;;4.10;1.83;;;32.60;57.00;;;;;;1699687;82;21711;-76
2022/11/12 05:56:06;;;;;;;8.38;1.72;;;32.60;56.20;;;;;;1704190;82;21179;-76
2022/11/12 05:58:38;;;;;;;6.25;2.00;;;32.70;56.60;;;;;;1731904;81;21748;-77
2022/11/12 06:01:10;;;;;;;6.58;1.67;;;32.70;56.80;;;;;;1730540;81;21235;-77
2022/11/12 06:03:44;;;;;;;4.53;2.00;;;32.70;56.90;;;;;;1740371;81;21289;-76
2022/11/12 06:06:16;;;;;;;3.25;1.72;;;32.70;57.10;;;;;;1728590;81;21722;-76
2022/11/12 06:08:55;;;;;;;3.05;1.70;;;32.70;57.40;;;;;;1723545;81;21185;-76
2022/11/12 06:11:27;;;;;;;5.80;1.90;;;32.70;57.40;;;;;;1725165;82;21551;-76
2022/11/12 06:14:04;;;;;;;4.42;1.70;;;32.70;57.60;;;;;;1726832;81;21125;-77
2022/11/12 06:16:35;;;;;;;3.22;1.87;;;32.70;57.20;;;;;;1724484;81;21185;-77
2022/11/12 06:19:06;;;;;;;11.85;2.52;;;32.70;56.90;;;;;;1736854;81;21156;-76
2022/11/12 06:21:37;;;;;;;9.80;3.22;;;32.70;57.50;;;;;;1728675;82;21202;-76
2022/11/12 06:26:46;;;;;;;5.62;2.30;;;32.80;57.60;;;;;;1712393;81;21258;-76
2022/11/12 06:29:17;;;;;;;4.75;2.42;;;32.80;57.20;;;;;;1723799;81;21169;-76
2022/11/12 06:31:48;;;;;;;4.70;2.12;;;32.90;57.60;;;;;;1727756;82;21216;-76
2022/11/12 06:34:20;;;;;;;3.95;2.20;;;32.90;57.90;;;;;;1731486;82;21354;-76
2022/11/12 06:36:52;;;;;;;5.72;2.10;;;32.90;57.50;;;;;;1729392;81;21642;-76
2022/11/12 06:39:27;;;;;;;4.25;2.40;;;32.90;57.30;;;;;;1730626;81;21138;-76
2022/11/12 06:45:30;;;;;;;;;;;;;;;;;;;;;
2022/11/12 07:05:02;;;;;;;5.10;2.10;;;32.90;58.10;;;;;;1839709;76;21576;-76
2022/11/12 07:07:33;;;;;;;8.95;3.02;;;32.90;57.40;;;;;;1913880;74;21541;-76
2022/11/12 07:10:06;;;;;;;6.95;2.30;;;32.90;57.70;;;;;;1914059;74;21155;-77
2022/11/12 07:12:37;;;;;;;4.67;2.50;;;32.80;56.90;;;;;;1911562;74;21120;-76
2022/11/12 07:15:09;;;;;;;5.80;2.00;;;32.70;57.70;;;;;;1907042;74;21156;-77
2022/11/12 07:17:40;;;;;;;5.58;2.52;;;32.70;57.20;;;;;;1900798;74;21721;-77
2022/11/12 07:20:13;;;;;;;5.78;2.60;;;32.70;57.60;;;;;;1906682;74;21602;-77
2022/11/12 07:22:44;;;;;;;8.70;2.42;;;32.70;57.70;;;;;;1905667;74;21650;-77
2022/11/12 07:25:15;;;;;;;5.45;2.25;;;32.70;57.60;;;;;;1906012;73;21182;-77
2022/11/12 07:27:46;;;;;;;5.90;2.77;;;32.70;57.60;;;;;;1899431;74;21231;-76
2022/11/12 07:30:17;;;;;;;4.85;2.47;;;32.70;58.00;;;;;;1904664;74;21112;-76
2022/11/12 07:32:48;;;;;;;2.72;1.82;;;32.70;58.30;;;;;;1903329;74;21126;-77
2022/11/12 07:35:21;;;;;;;6.75;2.80;;;32.70;57.50;;;;;;1902282;74;21178;-75
2022/11/12 07:37:52;;;;;;;4.53;2.22;;;32.70;58.00;;;;;;1897763;75;21120;-76
2022/11/12 07:40:28;;;;;;;4.78;2.17;;;32.70;57.50;;;;;;1900205;74;21245;-75
2022/11/12 07:43:00;;;;;;;4.20;2.17;;;32.70;57.70;;;;;;1901343;75;21159;-76
2022/11/12 07:45:31;;;;;;;5.22;2.75;;;32.60;57.70;;;;;;1902866;75;21143;-76
2022/11/12 07:48:48;;;;;;;3.42;2.08;;;32.60;57.60;;;;;;1901533;75;21144;-76
2022/11/12 07:50:46;;;;;;;2.98;2.00;;;32.60;57.70;;;;;;1842688;76;22134;-76
2022/11/12 07:53:17;;;;;;;4.58;2.35;;;32.60;58.20;;;;;;1903071;75;21104;-76
2022/11/12 07:55:57;;;;;;;4.42;2.35;;;32.60;57.70;;;;;;1904028;73;21670;-75
2022/11/12 07:58:41;;;;;;;4.50;2.00;;;32.60;57.80;;;;;;1889831;75;21637;-77
2022/11/12 08:01:11;;;;;;;5.75;2.52;;;32.60;58.00;;;;;;1887085;74;21183;-74
2022/11/12 08:03:43;;;;;;;5.00;2.42;;;32.50;57.90;;;;;;1871214;76;21205;-76
2022/11/12 08:06:26;;;;;;;6.20;2.22;;;32.50;58.30;;;;;;1885121;75;21174;-75
2022/11/12 08:09:05;;;;;;;4.50;2.12;;;32.40;58.00;;;;;;1904484;74;21158;-75
2022/11/12 08:11:34;;;;;;;6.58;2.22;;;32.40;58.20;;;;;;1892553;74;21568;-75
2022/11/12 08:14:06;;;;;;;5.28;2.52;;;32.40;58.10;;;;;;1903181;74;21136;-75
2022/11/12 08:16:52;;;;;;;;;;;;;;;;;;;;;
2022/11/12 08:19:33;;;;;;;5.10;2.20;;;32.40;58.50;;;;;;1885921;75;21143;-74
2022/11/12 08:22:04;;;;;;;6.42;2.60;;;32.40;58.40;;;;;;1894514;75;21960;-74
2022/11/12 08:24:35;;;;;;;5.15;2.62;;;32.30;58.70;;;;;;1888349;74;21254;-76
2022/11/12 08:27:07;;;;;;;6.80;2.30;;;32.20;58.70;;;;;;1897004;74;21090;-75
2022/11/12 08:30:18;;;;;;;;;;;;;;;;;;;;;
2022/11/12 08:32:41;;;;;;;4.75;2.62;;;32.30;58.30;;;;;;1800088;78;21179;-75
2022/11/12 08:35:13;;;;;;;5.87;2.90;;;32.30;58.70;;;;;;1874429;75;21046;-74
2022/11/12 08:37:53;;;;;;;2.75;1.90;;;32.30;58.80;;;;;;1875515;75;21154;-74
2022/11/12 08:40:24;;;;;;;4.47;2.47;;;32.30;59.00;;;;;;1885751;75;21152;-75
2022/11/12 08:46:08;;;;;;;3.80;2.60;;;32.30;59.30;;;;;;1810701;78;21273;-75
2022/11/12 08:48:40;;;;;;;4.42;2.10;;;32.30;58.60;;;;;;1815383;78;21160;-75
2022/11/12 08:51:11;;;;;;;4.15;2.10;;;32.40;58.70;;;;;;1872062;75;21144;-74
2022/11/12 08:53:42;;;;;;;3.05;2.05;;;32.40;58.00;;;;;;1886452;75;21127;-74
2022/11/12 08:56:13;;;;;;;3.83;2.10;;;32.40;58.60;;;;;;1889622;75;21093;-74
2022/11/12 08:58:44;;;;;;;5.95;2.30;;;32.40;57.80;;;;;;1885524;75;21081;-73
2022/11/12 09:01:15;;;;;;;7.00;2.62;;;32.40;58.10;;;;;;1896687;75;21693;-74
2022/11/12 09:03:48;;;;;;;5.90;2.22;;;32.40;58.10;;;;;;1890047;75;21125;-74
2022/11/12 09:06:20;;;;;;;4.85;2.27;;;32.40;57.90;;;;;;1888707;75;21721;-74
2022/11/12 09:08:51;;;;;;;3.62;2.27;;;32.40;57.50;;;;;;1885227;75;21172;-74
2022/11/12 09:11:28;;;;;;;7.53;2.58;;;32.40;57.50;;;;;;1884513;75;21069;-75
2022/11/12 09:13:59;;;;;;;4.62;2.62;;;32.40;57.60;;;;;;1828244;78;21182;-74
2022/11/12 09:16:30;;;;;;;4.85;2.20;;;32.40;57.50;;;;;;1888977;75;21089;-74
2022/11/12 09:19:01;;;;;;;6.08;2.47;;;32.40;57.70;;;;;;1889913;75;21102;-75
2022/11/12 09:21:32;;;;;;;6.40;2.40;;;32.40;57.60;;;;;;1886316;74;21105;-74
2022/11/12 09:24:20;;;;;;;11.03;2.80;;;32.40;57.50;;;;;;1892080;74;21096;-75
2022/11/12 09:26:48;;;;;;;4.62;2.50;;;32.30;57.80;;;;;;1875892;74;21124;-74
2022/11/12 09:29:20;;;;;;;6.50;2.77;;;32.20;57.90;;;;;;1892469;75;21697;-74
2022/11/12 09:31:51;;;;;;;9.00;2.65;;;32.20;58.10;;;;;;1873272;75;21667;-75
2022/11/12 09:34:22;;;;;;;4.53;2.27;;;32.20;58.10;;;;;;1886659;75;21144;-75
2022/11/12 09:36:54;;;;;;;9.10;3.00;;;32.10;58.20;;;;;;1871554;75;21075;-75
2022/11/12 09:39:25;;;;;;;3.87;2.10;;;32.10;58.40;;;;;;1894778;75;21486;-76
2022/11/12 09:42:07;;;;;;;4.55;2.55;;;32.00;58.50;;;;;;1888297;75;21139;-74
2022/11/12 09:44:44;;;;;;;5.70;2.30;;;32.00;58.40;;;;;;1890057;75;21137;-74
2022/11/12 09:47:23;;;;;;;5.83;2.65;;;31.90;58.30;;;;;;1879221;75;21084;-75
2022/11/12 09:50:00;;;;;;;6.30;2.17;;;31.90;58.70;;;;;;1870760;76;21225;-75
2022/11/12 09:52:33;;;;;;;6.72;2.80;;;31.80;58.80;;;;;;1875129;75;21656;-75
2022/11/12 09:55:16;;;;;;;4.92;2.90;;;31.80;58.80;;;;;;1875579;75;21568;-76
2022/11/12 09:57:49;;;;;;;6.03;2.87;;;31.80;59.20;;;;;;1889273;75;22354;-75
2022/11/12 10:00:21;;;;;;;6.15;3.33;;;31.80;59.30;;;;;;1903645;75;21085;-75
2022/11/12 10:03:05;;;;;;;5.80;2.70;;;31.70;59.50;;;;;;1877419;75;21218;-75
2022/11/12 10:05:42;;;;;;;6.47;2.70;;;31.70;59.70;;;;;;1880407;75;21751;-75
2022/11/12 10:08:26;;;;;;;;;;;31.60;59.90;;;;;;1876462;75;21607;-74
2022/11/12 10:11:01;;;;;;;10.63;3.10;;;31.60;60.40;;;;;;1874804;75;20465;-74
2022/11/12 10:13:46;;;;;;;5.78;2.40;;;31.60;60.40;;;;;;1848074;74;21137;-74
2022/11/12 10:16:43;;;;;;;6.22;2.50;;;31.60;60.60;;;;;;1881784;75;21407;-75
2022/11/12 10:19:34;;;;;;;7.42;2.70;;;31.50;60.90;;;;;;1881761;75;21148;-74
2022/11/12 10:22:14;;;;;;;5.30;2.80;;;31.40;61.30;;;;;;1897896;75;21549;-74
2022/11/12 10:24:54;;;;;;;8.98;3.77;;;31.40;61.80;;;;;;1878906;75;21674;-74
2022/11/12 10:27:26;;;;;;;7.28;3.75;;;31.40;61.70;;;;;;1893737;75;21206;-75
2022/11/12 10:30:06;;;;;;;9.13;3.63;;;31.30;61.60;;;;;;1892789;75;21636;-74
2022/11/12 10:32:57;;;;;;;11.45;3.62;;;31.30;62.70;;;;;;1902899;75;21190;-75
2022/11/12 10:35:48;;;;;;;8.80;5.72;;;31.30;61.80;;;;;;1887210;75;21049;-75
2022/11/12 10:38:22;;;;;;;7.90;4.95;;;31.20;62.10;;;;;;1878417;75;21069;-74
2022/11/12 10:40:54;;;;;;;8.98;4.28;;;31.20;62.20;;;;;;1884977;75;21229;-75
2022/11/12 10:43:25;;;;;;;13.25;4.35;;;31.10;62.30;;;;;;1872628;75;21167;-74
2022/11/12 10:45:59;;;;;;;8.55;4.28;;;31.20;62.70;;;;;;1873164;75;21185;-74
2022/11/12 10:48:35;;;;;;;9.75;3.50;;;31.10;62.60;;;;;;1866636;76;21128;-74
2022/11/12 10:51:08;;;;;;;8.78;3.72;;;31.00;62.70;;;;;;1887927;75;21104;-75
2022/11/12 10:53:40;;;;;;;7.37;3.75;;;31.00;62.90;;;;;;1887469;74;21238;-72
2022/11/12 10:56:29;;;;;;;8.83;4.12;;;31.00;63.00;;;;;;1886503;75;21130;-74
2022/11/12 10:59:11;;;;;;;7.90;4.65;;;30.90;63.10;;;;;;1887386;75;21070;-74
2022/11/12 11:01:46;;;;;;;9.60;5.37;;;30.90;63.20;;;;;;1887796;75;21176;-73
2022/11/12 11:04:23;;;;;;;11.68;5.08;;;30.90;63.00;;;;;;1881178;75;21095;-75
2022/11/12 11:07:03;;;;;;;7.65;4.67;;;30.90;63.00;;;;;;1880822;75;21533;-74
2022/11/12 11:09:35;;;;;;;10.23;4.92;;;30.80;62.80;;;;;;1884006;75;21124;-74
2022/11/12 11:12:08;;;;;;;9.63;4.90;;;30.80;62.70;;;;;;1881984;75;21083;-75
2022/11/12 11:14:40;;;;;;;11.95;5.40;;;30.80;62.60;;;;;;1882697;75;21119;-73
2022/11/12 11:17:20;;;;;;;8.53;4.72;;;30.70;62.70;;;;;;1890845;75;21212;-74
2022/11/12 11:19:55;;;;;;;16.55;5.87;;;30.70;63.00;;;;;;1891085;75;21131;-75
2022/11/12 11:22:45;;;;;;;8.58;5.20;;;30.70;63.10;;;;;;1883832;75;21722;-73
2022/11/12 11:25:19;;;;;;;10.25;5.40;;;30.70;63.20;;;;;;1884480;74;21173;-74
2022/11/12 11:28:01;;;;;;;9.05;5.92;;;30.70;63.40;;;;;;1879962;75;21204;-72
2022/11/12 11:30:33;;;;;;;10.03;5.50;;;30.70;63.50;;;;;;1878100;75;21586;-76
2022/11/12 11:33:26;;;;;;;8.45;5.28;;;30.70;63.50;;;;;;1881638;74;21571;-73
2022/11/12 11:36:18;;;;;;;10.90;5.40;;;30.70;63.50;;;;;;1878379;75;21992;-71
2022/11/12 11:39:05;;;;;;;10.60;5.25;;;30.70;63.60;;;;;;1881316;75;21182;-73
2022/11/12 11:41:47;;;;;;;11.22;5.50;;;30.70;63.70;;;;;;1879088;75;21626;-77
2022/11/12 11:44:35;;;;;;;8.93;5.97;;;30.60;63.70;;;;;;1881731;75;21646;-74
2022/11/12 11:47:17;;;;;;;7.85;5.90;;;30.60;64.00;;;;;;1869821;75;21182;-75
2022/11/12 11:50:18;;;;;;;11.97;5.58;;;30.60;64.20;;;;;;1877119;75;21204;-87
2022/11/12 11:53:06;;;;;;;11.80;5.85;;;30.60;64.40;;;;;;1901566;74;21103;-86
2022/11/12 11:55:46;;;;;;;8.83;5.50;;;30.60;64.40;;;;;;1873440;75;21092;-86
2022/11/12 11:58:36;;;;;;;14.85;5.80;;;30.60;64.50;;;;;;1866848;75;21582;-84
2022/11/12 12:01:11;;;;;;;12.80;5.90;;;30.60;64.70;;;;;;1888570;75;21145;-87
2022/11/12 12:03:57;;;;;;;12.20;5.60;;;30.60;64.70;;;;;;1898466;75;21139;-85
2022/11/12 12:06:30;;;;;;;8.20;5.33;;;30.50;64.60;;;;;;1890927;74;21085;-86
2022/11/12 12:09:25;;;;;;;10.35;6.40;;;30.60;64.70;;;;;;1889211;75;21140;-86
2022/11/12 12:12:23;;;;;;;11.65;6.37;;;30.50;64.80;;;;;;1892286;74;21077;-85
2022/11/12 12:15:04;;;;;;;12.90;6.72;;;30.50;64.80;;;;;;1881217;74;21093;-85
2022/11/12 12:18:26;;;;;;;;;;;;;;;;;;;;;
2022/11/12 12:21:18;;;;;;;12.60;7.70;;;30.50;65.20;;;;;;1851216;74;21122;-85
2022/11/12 12:23:57;;;;;;;14.20;7.08;;;30.40;65.10;;;;;;1881449;74;21725;-85
2022/11/12 12:26:39;;;;;;;16.50;8.15;;;30.40;65.10;;;;;;1887956;75;21097;-85
2022/11/12 12:29:24;;;;;;;14.38;8.73;;;30.40;65.20;;;;;;1893124;75;21549;-85
2022/11/12 12:32:16;;;;;;;15.88;9.10;;;30.40;65.50;;;;;;1880580;75;21168;-85
2022/11/12 12:34:51;;;;;;;16.60;9.40;;;30.40;65.70;;;;;;1831010;77;21658;-85
2022/11/12 12:37:43;;;;;;;21.55;9.20;;;30.30;65.70;;;;;;1879252;75;21144;-85
2022/11/12 12:40:50;;;;;;;15.35;9.35;;;30.30;65.80;;;;;;1885214;74;21311;-87
2022/11/12 12:46:46;;;;;;;18.40;9.78;;;30.30;66.10;;;;;;1805454;77;21259;-86
2022/11/12 12:49:23;;;;;;;20.35;9.75;;;30.30;66.10;;;;;;1812804;75;21149;-86
2022/11/12 12:51:54;;;;;;;18.52;9.63;;;30.20;66.30;;;;;;1872227;75;21089;-85
2022/11/12 12:54:39;;;;;;;16.50;9.53;;;30.20;66.50;;;;;;1886612;75;21128;-86
2022/11/12 12:57:32;;;;;;;19.77;10.63;;;30.20;66.60;;;;;;1879169;75;21073;-85
2022/11/12 13:00:57;;;;;;;19.85;11.10;;;30.20;66.60;;;;;;1874610;75;21286;-84
2022/11/12 13:04:01;;;;;;;19.20;10.30;;;30.10;66.70;;;;;;1884858;75;21104;-84
2022/11/12 13:06:54;;;;;;;23.65;11.05;;;30.10;67.00;;;;;;1887099;75;21157;-85
2022/11/12 13:09:27;;;;;;;17.27;9.73;;;30.00;67.20;;;;;;1879870;75;21158;-86
2022/11/12 13:14:44;;;;;;;16.82;9.80;;;30.00;67.50;;;;;;1882206;75;21976;-85
2022/11/12 13:17:17;;;;;;;18.67;10.55;;;30.00;67.70;;;;;;1883674;75;21689;-84
2022/11/12 13:20:03;;;;;;;16.42;9.48;;;30.00;67.90;;;;;;1829788;77;21164;-85
2022/11/12 13:22:40;;;;;;;18.40;9.80;;;29.90;67.90;;;;;;1891397;75;21144;-84
2022/11/12 13:25:16;;;;;;;21.80;10.30;;;29.90;68.20;;;;;;1884555;75;21112;-85
2022/11/12 13:27:49;;;;;;;15.70;10.05;;;29.90;68.50;;;;;;1828455;78;21120;-86
2022/11/12 13:30:26;;;;;;;21.90;10.45;;;29.90;68.60;;;;;;1884506;74;21215;-85
2022/11/12 13:32:59;;;;;;;20.07;11.57;;;29.90;68.80;;;;;;1832250;76;21180;-85
2022/11/12 13:35:38;;;;;;;17.90;10.50;;;29.90;69.00;;;;;;1883173;75;21346;-84
2022/11/12 13:38:26;;;;;;;;;;;;;;;;;;;;;
2022/11/12 13:41:13;;;;;;;19.15;9.98;;;29.80;69.70;;;;;;1845829;77;21121;-84
2022/11/12 13:44:10;;;;;;;;;;;29.80;69.80;;;;;;1859720;77;21124;-86
2022/11/12 13:47:05;;;;;;;18.12;10.72;;;29.80;69.80;;;;;;1740987;79;20586;-85
2022/11/12 13:49:47;;;;;;;14.30;9.68;;;29.70;70.00;;;;;;1783621;79;21651;-85
2022/11/12 13:52:19;;;;;;;20.65;10.45;;;29.70;70.20;;;;;;1775566;79;21149;-85
2022/11/12 13:55:01;;;;;;;18.75;10.65;;;29.70;70.50;;;;;;1855404;77;21144;-85
2022/11/12 13:57:33;;;;;;;17.20;10.55;;;29.60;70.60;;;;;;1852182;76;21156;-85
2022/11/12 14:00:10;;;;;;;17.30;10.35;;;29.60;70.50;;;;;;1864496;76;21089;-84
2022/11/12 14:03:06;;;;;;;17.00;10.45;;;29.60;70.90;;;;;;1866939;75;21261;-85
2022/11/12 14:05:37;;;;;;;13.68;10.00;;;29.60;70.80;;;;;;1844735;76;21216;-85
2022/11/12 14:08:30;;;;;;;21.37;10.88;;;29.60;71.10;;;;;;1851563;76;22091;-85
2022/11/12 14:11:07;;;;;;;18.27;10.65;;;29.60;71.20;;;;;;1839402;77;21170;-86
2022/11/12 14:14:16;;;;;;;16.37;9.85;;;29.50;71.20;;;;;;1850801;76;21181;-85
2022/11/12 14:16:56;;;;;;;22.35;10.45;;;29.50;71.40;;;;;;1818377;77;21710;-85
2022/11/12 14:23:12;;;;;;;20.90;11.55;;;29.50;71.80;;;;;;1836365;76;21069;-85
2022/11/12 14:26:52;;;;;;;22.02;10.63;;;29.50;71.80;;;;;;1805910;78;21691;-85
2022/11/12 14:29:06;;;;;;;18.25;9.13;;;29.40;72.10;;;;;;1723577;82;21200;-86
2022/11/12 14:31:40;;;;;;;21.25;10.20;;;29.40;72.10;;;;;;1718154;83;21335;-85
2022/11/12 14:34:22;;;;;;;17.55;10.20;;;29.40;72.00;;;;;;1825020;76;21156;-86
2022/11/12 14:36:54;;;;;;;17.23;9.83;;;29.30;72.20;;;;;;1825234;76;21159;-85